sensor_id;sensor_type;location;lat;lon;timestamp;P1;durP1;ratioP1;P2;durP2;ratioP2
60088;SDS011;45961;53.574;55.878;2023-02-15T00:00:21;11.50;;;5.90;;
60088;SDS011;45961;53.574;55.878;2023-02-15T00:01:22;13.10;;;6.40;;
60088;SDS011;45961;53.574;55.878;2023-02-15T00:02:23;10.73;;;5.80;;
60088;SDS011;45961;53.574;55.878;2023-02-15T00:03:24;10.07;;;5.57;;
60088;SDS011;45961;53.574;55.878;2023-02-15T00:04:25;12.85;;;6.18;;
60088;SDS011;45961;53.574;55.878;2023-02-15T00:05:46;12.50;;;6.88;;
60088;SDS011;45961;53.574;55.878;2023-02-15T00:06:47;11.43;;;6.82;;
60088;SDS011;45961;53.574;55.878;2023-02-15T00:07:48;10.60;;;5.60;;
60088;SDS011;45961;53.574;55.878;2023-02-15T00:08:49;10.13;;;5.80;;
60088;SDS011;45961;53.574;55.878;2023-02-15T00:09:50;14.93;;;7.20;;
60088;SDS011;45961;53.574;55.878;2023-02-15T00:10:51;16.30;;;6.55;;
60088;SDS011;45961;53.574;55.878;2023-02-15T00:11:52;11.63;;;6.03;;
60088;SDS011;45961;53.574;55.878;2023-02-15T00:12:53;11.23;;;6.68;;
60088;SDS011;45961;53.574;55.878;2023-02-15T00:13:54;10.88;;;5.88;;
60088;SDS011;45961;53.574;55.878;2023-02-15T00:14:55;12.10;;;6.07;;
60088;SDS011;45961;53.574;55.878;2023-02-15T00:16:00;11.75;;;6.63;;
60088;SDS011;45961;53.574;55.878;2023-02-15T00:17:04;15.07;;;6.95;;
60088;SDS011;45961;53.574;55.878;2023-02-15T00:18:05;11.95;;;6.60;;
60088;SDS011;45961;53.574;55.878;2023-02-15T00:19:06;16.52;;;6.88;;
60088;SDS011;45961;53.574;55.878;2023-02-15T00:20:08;11.98;;;6.53;;
60088;SDS011;45961;53.574;55.878;2023-02-15T00:22:10;13.50;;;6.77;;
60088;SDS011;45961;53.574;55.878;2023-02-15T00:23:11;13.00;;;7.43;;
60088;SDS011;45961;53.574;55.878;2023-02-15T00:24:13;13.35;;;7.28;;
60088;SDS011;45961;53.574;55.878;2023-02-15T00:25:15;15.18;;;7.97;;
60088;SDS011;45961;53.574;55.878;2023-02-15T00:26:16;12.10;;;7.10;;
60088;SDS011;45961;53.574;55.878;2023-02-15T00:27:18;15.10;;;7.70;;
60088;SDS011;45961;53.574;55.878;2023-02-15T00:28:19;14.60;;;8.02;;
60088;SDS011;45961;53.574;55.878;2023-02-15T00:29:20;13.98;;;6.95;;
60088;SDS011;45961;53.574;55.878;2023-02-15T00:30:21;14.98;;;8.35;;
60088;SDS011;45961;53.574;55.878;2023-02-15T00:31:23;13.70;;;7.35;;
60088;SDS011;45961;53.574;55.878;2023-02-15T00:32:25;15.18;;;6.68;;
60088;SDS011;45961;53.574;55.878;2023-02-15T00:33:26;12.15;;;6.88;;
60088;SDS011;45961;53.574;55.878;2023-02-15T00:35:30;13.00;;;6.60;;
60088;SDS011;45961;53.574;55.878;2023-02-15T00:36:31;14.10;;;6.90;;
60088;SDS011;45961;53.574;55.878;2023-02-15T00:38:34;11.80;;;6.10;;
60088;SDS011;45961;53.574;55.878;2023-02-15T00:40:35;9.57;;;5.30;;
60088;SDS011;45961;53.574;55.878;2023-02-15T00:41:36;11.77;;;6.07;;
60088;SDS011;45961;53.574;55.878;2023-02-15T00:42:37;14.15;;;5.95;;
60088;SDS011;45961;53.574;55.878;2023-02-15T00:43:39;12.55;;;6.63;;
60088;SDS011;45961;53.574;55.878;2023-02-15T00:44:39;15.77;;;7.40;;
60088;SDS011;45961;53.574;55.878;2023-02-15T00:45:40;12.88;;;6.75;;
60088;SDS011;45961;53.574;55.878;2023-02-15T00:47:43;12.52;;;6.60;;
60088;SDS011;45961;53.574;55.878;2023-02-15T00:48:44;19.42;;;7.30;;
60088;SDS011;45961;53.574;55.878;2023-02-15T00:49:45;15.60;;;7.93;;
60088;SDS011;45961;53.574;55.878;2023-02-15T00:50:46;18.00;;;8.45;;
60088;SDS011;45961;53.574;55.878;2023-02-15T00:51:49;15.75;;;8.93;;
60088;SDS011;45961;53.574;55.878;2023-02-15T00:52:50;13.98;;;7.30;;
60088;SDS011;45961;53.574;55.878;2023-02-15T00:53:51;14.07;;;8.10;;
60088;SDS011;45961;53.574;55.878;2023-02-15T00:54:52;13.40;;;6.90;;
60088;SDS011;45961;53.574;55.878;2023-02-15T00:55:54;13.77;;;7.68;;
60088;SDS011;45961;53.574;55.878;2023-02-15T00:56:56;18.77;;;8.45;;
60088;SDS011;45961;53.574;55.878;2023-02-15T00:57:57;19.98;;;8.43;;
60088;SDS011;45961;53.574;55.878;2023-02-15T00:58:58;16.23;;;7.88;;
60088;SDS011;45961;53.574;55.878;2023-02-15T00:59:59;16.88;;;9.05;;
60088;SDS011;45961;53.574;55.878;2023-02-15T01:01:03;15.27;;;8.38;;
60088;SDS011;45961;53.574;55.878;2023-02-15T01:02:06;15.77;;;8.85;;
60088;SDS011;45961;53.574;55.878;2023-02-15T01:03:07;15.52;;;9.38;;
60088;SDS011;45961;53.574;55.878;2023-02-15T01:04:07;15.02;;;8.52;;
60088;SDS011;45961;53.574;55.878;2023-02-15T01:05:09;15.98;;;8.57;;
60088;SDS011;45961;53.574;55.878;2023-02-15T01:06:11;17.80;;;8.20;;
60088;SDS011;45961;53.574;55.878;2023-02-15T01:07:13;16.90;;;8.13;;
60088;SDS011;45961;53.574;55.878;2023-02-15T01:08:16;13.82;;;7.85;;
60088;SDS011;45961;53.574;55.878;2023-02-15T01:09:17;12.77;;;7.00;;
60088;SDS011;45961;53.574;55.878;2023-02-15T01:10:18;20.27;;;8.95;;
60088;SDS011;45961;53.574;55.878;2023-02-15T01:11:20;13.68;;;7.38;;
60088;SDS011;45961;53.574;55.878;2023-02-15T01:12:24;17.08;;;7.97;;
60088;SDS011;45961;53.574;55.878;2023-02-15T01:13:25;12.43;;;6.63;;
60088;SDS011;45961;53.574;55.878;2023-02-15T01:14:28;16.58;;;7.78;;
60088;SDS011;45961;53.574;55.878;2023-02-15T01:15:29;15.40;;;7.88;;
60088;SDS011;45961;53.574;55.878;2023-02-15T01:16:29;13.63;;;7.30;;
60088;SDS011;45961;53.574;55.878;2023-02-15T01:17:31;13.23;;;7.72;;
60088;SDS011;45961;53.574;55.878;2023-02-15T01:18:32;14.13;;;6.47;;
60088;SDS011;45961;53.574;55.878;2023-02-15T01:19:34;21.48;;;7.82;;
60088;SDS011;45961;53.574;55.878;2023-02-15T01:20:36;13.25;;;6.63;;
60088;SDS011;45961;53.574;55.878;2023-02-15T01:21:39;16.95;;;6.80;;
60088;SDS011;45961;53.574;55.878;2023-02-15T01:22:41;12.55;;;6.80;;
60088;SDS011;45961;53.574;55.878;2023-02-15T01:23:42;13.40;;;6.78;;
60088;SDS011;45961;53.574;55.878;2023-02-15T01:24:43;12.27;;;6.40;;
60088;SDS011;45961;53.574;55.878;2023-02-15T01:25:44;14.02;;;6.93;;
60088;SDS011;45961;53.574;55.878;2023-02-15T01:26:45;12.75;;;6.47;;
60088;SDS011;45961;53.574;55.878;2023-02-15T01:27:46;11.70;;;6.97;;
60088;SDS011;45961;53.574;55.878;2023-02-15T01:29:48;15.07;;;6.00;;
60088;SDS011;45961;53.574;55.878;2023-02-15T01:30:49;9.80;;;5.82;;
60088;SDS011;45961;53.574;55.878;2023-02-15T01:31:51;10.60;;;5.60;;
60088;SDS011;45961;53.574;55.878;2023-02-15T01:32:52;12.02;;;6.68;;
60088;SDS011;45961;53.574;55.878;2023-02-15T01:33:53;12.20;;;5.15;;
60088;SDS011;45961;53.574;55.878;2023-02-15T01:34:54;10.35;;;6.40;;
60088;SDS011;45961;53.574;55.878;2023-02-15T01:35:58;10.30;;;5.25;;
60088;SDS011;45961;53.574;55.878;2023-02-15T01:36:59;14.48;;;6.32;;
60088;SDS011;45961;53.574;55.878;2023-02-15T01:38:20;9.80;;;5.45;;
60088;SDS011;45961;53.574;55.878;2023-02-15T01:39:21;11.23;;;5.95;;
60088;SDS011;45961;53.574;55.878;2023-02-15T01:40:22;10.10;;;6.35;;
60088;SDS011;45961;53.574;55.878;2023-02-15T01:41:23;11.35;;;5.80;;
60088;SDS011;45961;53.574;55.878;2023-02-15T01:42:25;13.65;;;6.35;;
60088;SDS011;45961;53.574;55.878;2023-02-15T01:43:38;12.68;;;6.25;;
60088;SDS011;45961;53.574;55.878;2023-02-15T01:44:48;12.20;;;6.65;;
60088;SDS011;45961;53.574;55.878;2023-02-15T01:45:53;10.73;;;5.80;;
60088;SDS011;45961;53.574;55.878;2023-02-15T01:46:54;8.65;;;5.30;;
60088;SDS011;45961;53.574;55.878;2023-02-15T01:48:05;11.25;;;5.65;;
60088;SDS011;45961;53.574;55.878;2023-02-15T01:49:20;11.95;;;5.65;;
60088;SDS011;45961;53.574;55.878;2023-02-15T01:51:36;8.50;;;4.72;;
60088;SDS011;45961;53.574;55.878;2023-02-15T01:52:40;10.85;;;4.95;;
60088;SDS011;45961;53.574;55.878;2023-02-15T01:53:56;10.10;;;5.55;;
60088;SDS011;45961;53.574;55.878;2023-02-15T01:55:01;13.32;;;5.07;;
60088;SDS011;45961;53.574;55.878;2023-02-15T01:56:05;10.52;;;5.45;;
60088;SDS011;45961;53.574;55.878;2023-02-15T01:57:12;9.25;;;5.05;;
60088;SDS011;45961;53.574;55.878;2023-02-15T01:58:17;11.25;;;5.97;;
60088;SDS011;45961;53.574;55.878;2023-02-15T01:59:20;11.05;;;5.50;;
60088;SDS011;45961;53.574;55.878;2023-02-15T02:00:24;11.60;;;5.45;;
60088;SDS011;45961;53.574;55.878;2023-02-15T02:01:25;12.35;;;5.28;;
60088;SDS011;45961;53.574;55.878;2023-02-15T02:02:30;9.98;;;5.85;;
60088;SDS011;45961;53.574;55.878;2023-02-15T02:04:54;9.55;;;5.65;;
60088;SDS011;45961;53.574;55.878;2023-02-15T02:05:59;11.82;;;6.03;;
60088;SDS011;45961;53.574;55.878;2023-02-15T02:07:00;10.60;;;5.20;;
60088;SDS011;45961;53.574;55.878;2023-02-15T02:08:02;10.70;;;5.95;;
60088;SDS011;45961;53.574;55.878;2023-02-15T02:09:05;11.63;;;6.00;;
60088;SDS011;45961;53.574;55.878;2023-02-15T02:10:07;13.70;;;6.20;;
60088;SDS011;45961;53.574;55.878;2023-02-15T02:11:10;10.30;;;5.20;;
60088;SDS011;45961;53.574;55.878;2023-02-15T02:12:12;13.27;;;6.07;;
60088;SDS011;45961;53.574;55.878;2023-02-15T02:13:14;12.98;;;6.15;;
60088;SDS011;45961;53.574;55.878;2023-02-15T02:14:16;12.30;;;6.45;;
60088;SDS011;45961;53.574;55.878;2023-02-15T02:15:18;11.45;;;6.35;;
60088;SDS011;45961;53.574;55.878;2023-02-15T02:18:11;11.85;;;6.00;;
60088;SDS011;45961;53.574;55.878;2023-02-15T02:19:51;10.45;;;5.53;;
60088;SDS011;45961;53.574;55.878;2023-02-15T02:21:16;14.80;;;6.07;;
60088;SDS011;45961;53.574;55.878;2023-02-15T02:23:29;13.82;;;5.90;;
60088;SDS011;45961;53.574;55.878;2023-02-15T02:27:21;10.95;;;5.22;;
60088;SDS011;45961;53.574;55.878;2023-02-15T02:33:24;10.73;;;5.38;;
60088;SDS011;45961;53.574;55.878;2023-02-15T02:38:12;9.88;;;4.90;;
60088;SDS011;45961;53.574;55.878;2023-02-15T02:41:32;12.73;;;4.43;;
60088;SDS011;45961;53.574;55.878;2023-02-15T02:43:01;10.30;;;5.18;;
60088;SDS011;45961;53.574;55.878;2023-02-15T02:44:16;10.40;;;4.47;;
60088;SDS011;45961;53.574;55.878;2023-02-15T02:45:28;10.18;;;5.30;;
60088;SDS011;45961;53.574;55.878;2023-02-15T02:47:56;9.57;;;4.57;;
60088;SDS011;45961;53.574;55.878;2023-02-15T02:49:02;12.02;;;6.13;;
60088;SDS011;45961;53.574;55.878;2023-02-15T02:50:05;9.60;;;5.15;;
60088;SDS011;45961;53.574;55.878;2023-02-15T02:51:14;12.23;;;5.40;;
60088;SDS011;45961;53.574;55.878;2023-02-15T02:52:43;10.18;;;5.53;;
60088;SDS011;45961;53.574;55.878;2023-02-15T02:53:46;9.25;;;4.90;;
60088;SDS011;45961;53.574;55.878;2023-02-15T02:54:48;8.68;;;4.13;;
60088;SDS011;45961;53.574;55.878;2023-02-15T02:55:50;10.68;;;5.38;;
60088;SDS011;45961;53.574;55.878;2023-02-15T02:57:13;9.15;;;4.82;;
60088;SDS011;45961;53.574;55.878;2023-02-15T02:58:15;10.10;;;5.70;;
60088;SDS011;45961;53.574;55.878;2023-02-15T02:59:30;12.48;;;5.80;;
60088;SDS011;45961;53.574;55.878;2023-02-15T03:00:42;10.10;;;5.72;;
60088;SDS011;45961;53.574;55.878;2023-02-15T03:04:24;10.45;;;5.43;;
60088;SDS011;45961;53.574;55.878;2023-02-15T03:05:31;9.23;;;5.20;;
60088;SDS011;45961;53.574;55.878;2023-02-15T03:07:49;11.20;;;5.68;;
60088;SDS011;45961;53.574;55.878;2023-02-15T03:08:57;13.35;;;6.68;;
60088;SDS011;45961;53.574;55.878;2023-02-15T03:10:17;9.05;;;5.18;;
60088;SDS011;45961;53.574;55.878;2023-02-15T03:11:24;10.60;;;5.28;;
60088;SDS011;45961;53.574;55.878;2023-02-15T03:12:30;10.68;;;5.05;;
60088;SDS011;45961;53.574;55.878;2023-02-15T03:13:34;9.88;;;5.68;;
60088;SDS011;45961;53.574;55.878;2023-02-15T03:14:36;9.98;;;5.00;;
60088;SDS011;45961;53.574;55.878;2023-02-15T03:15:39;11.68;;;5.15;;
60088;SDS011;45961;53.574;55.878;2023-02-15T03:17:02;13.43;;;5.60;;
60088;SDS011;45961;53.574;55.878;2023-02-15T03:18:07;7.47;;;4.95;;
60088;SDS011;45961;53.574;55.878;2023-02-15T03:19:09;9.93;;;4.53;;
60088;SDS011;45961;53.574;55.878;2023-02-15T03:22:44;9.50;;;4.55;;
60088;SDS011;45961;53.574;55.878;2023-02-15T03:23:54;10.93;;;5.75;;
60088;SDS011;45961;53.574;55.878;2023-02-15T03:25:06;12.90;;;5.95;;
60088;SDS011;45961;53.574;55.878;2023-02-15T03:26:21;8.82;;;5.18;;
60088;SDS011;45961;53.574;55.878;2023-02-15T03:27:26;9.88;;;5.15;;
60088;SDS011;45961;53.574;55.878;2023-02-15T03:28:40;9.57;;;5.30;;
60088;SDS011;45961;53.574;55.878;2023-02-15T03:29:48;8.85;;;4.70;;
60088;SDS011;45961;53.574;55.878;2023-02-15T03:30:55;10.35;;;4.60;;
60088;SDS011;45961;53.574;55.878;2023-02-15T03:32:00;11.70;;;5.72;;
60088;SDS011;45961;53.574;55.878;2023-02-15T03:33:05;8.23;;;4.15;;
60088;SDS011;45961;53.574;55.878;2023-02-15T03:34:10;9.30;;;4.40;;
60088;SDS011;45961;53.574;55.878;2023-02-15T03:35:13;12.43;;;4.95;;
60088;SDS011;45961;53.574;55.878;2023-02-15T03:36:17;9.05;;;4.55;;
60088;SDS011;45961;53.574;55.878;2023-02-15T03:37:25;7.13;;;3.58;;
60088;SDS011;45961;53.574;55.878;2023-02-15T03:38:37;8.73;;;4.47;;
60088;SDS011;45961;53.574;55.878;2023-02-15T03:39:52;8.70;;;4.82;;
60088;SDS011;45961;53.574;55.878;2023-02-15T03:40:54;10.70;;;4.38;;
60088;SDS011;45961;53.574;55.878;2023-02-15T03:42:19;7.25;;;4.15;;
60088;SDS011;45961;53.574;55.878;2023-02-15T03:43:35;8.75;;;4.80;;
60088;SDS011;45961;53.574;55.878;2023-02-15T03:45:02;7.68;;;4.50;;
60088;SDS011;45961;53.574;55.878;2023-02-15T03:46:20;10.23;;;4.07;;
60088;SDS011;45961;53.574;55.878;2023-02-15T03:47:36;8.68;;;4.47;;
60088;SDS011;45961;53.574;55.878;2023-02-15T03:48:43;11.98;;;4.38;;
60088;SDS011;45961;53.574;55.878;2023-02-15T03:49:51;8.18;;;4.47;;
60088;SDS011;45961;53.574;55.878;2023-02-15T03:50:57;8.75;;;5.00;;
60088;SDS011;45961;53.574;55.878;2023-02-15T03:52:20;9.63;;;4.80;;
60088;SDS011;45961;53.574;55.878;2023-02-15T03:53:23;7.75;;;5.25;;
60088;SDS011;45961;53.574;55.878;2023-02-15T03:54:29;12.57;;;4.95;;
60088;SDS011;45961;53.574;55.878;2023-02-15T03:55:46;10.88;;;5.15;;
60088;SDS011;45961;53.574;55.878;2023-02-15T03:56:53;8.80;;;4.75;;
60088;SDS011;45961;53.574;55.878;2023-02-15T03:58:14;9.35;;;4.40;;
60088;SDS011;45961;53.574;55.878;2023-02-15T03:59:34;7.90;;;4.13;;
60088;SDS011;45961;53.574;55.878;2023-02-15T04:01:18;8.13;;;4.10;;
60088;SDS011;45961;53.574;55.878;2023-02-15T04:02:52;6.80;;;3.72;;
60088;SDS011;45961;53.574;55.878;2023-02-15T04:04:36;10.57;;;5.43;;
60088;SDS011;45961;53.574;55.878;2023-02-15T04:05:33;9.38;;;5.05;;
60088;SDS011;45961;53.574;55.878;2023-02-15T04:06:35;15.70;;;4.45;;
60088;SDS011;45961;53.574;55.878;2023-02-15T04:07:36;9.95;;;4.47;;
60088;SDS011;45961;53.574;55.878;2023-02-15T04:08:37;9.52;;;4.32;;
60088;SDS011;45961;53.574;55.878;2023-02-15T04:09:56;14.15;;;3.85;;
60088;SDS011;45961;53.574;55.878;2023-02-15T04:11:16;10.27;;;5.03;;
60088;SDS011;45961;53.574;55.878;2023-02-15T04:12:17;11.27;;;4.75;;
60088;SDS011;45961;53.574;55.878;2023-02-15T04:13:39;11.00;;;4.85;;
60088;SDS011;45961;53.574;55.878;2023-02-15T04:14:39;8.10;;;3.78;;
60088;SDS011;45961;53.574;55.878;2023-02-15T04:15:59;9.45;;;4.40;;
60088;SDS011;45961;53.574;55.878;2023-02-15T04:17:07;8.70;;;4.40;;
60088;SDS011;45961;53.574;55.878;2023-02-15T04:18:09;9.77;;;4.50;;
60088;SDS011;45961;53.574;55.878;2023-02-15T04:19:10;9.68;;;5.05;;
60088;SDS011;45961;53.574;55.878;2023-02-15T04:20:30;8.13;;;3.97;;
60088;SDS011;45961;53.574;55.878;2023-02-15T04:21:49;8.13;;;3.90;;
60088;SDS011;45961;53.574;55.878;2023-02-15T04:23:08;6.90;;;4.05;;
60088;SDS011;45961;53.574;55.878;2023-02-15T04:24:27;7.55;;;4.00;;
60088;SDS011;45961;53.574;55.878;2023-02-15T04:25:46;9.38;;;3.88;;
60088;SDS011;45961;53.574;55.878;2023-02-15T04:26:47;8.68;;;4.03;;
60088;SDS011;45961;53.574;55.878;2023-02-15T04:27:49;8.30;;;4.50;;
60088;SDS011;45961;53.574;55.878;2023-02-15T04:28:52;6.53;;;3.78;;
60088;SDS011;45961;53.574;55.878;2023-02-15T04:29:52;8.65;;;4.40;;
60088;SDS011;45961;53.574;55.878;2023-02-15T04:30:53;7.97;;;4.35;;
60088;SDS011;45961;53.574;55.878;2023-02-15T04:31:55;9.68;;;4.47;;
60088;SDS011;45961;53.574;55.878;2023-02-15T04:32:57;10.43;;;4.25;;
60088;SDS011;45961;53.574;55.878;2023-02-15T04:33:58;11.10;;;4.28;;
60088;SDS011;45961;53.574;55.878;2023-02-15T04:34:59;7.78;;;4.68;;
60088;SDS011;45961;53.574;55.878;2023-02-15T04:37:02;7.50;;;4.03;;
60088;SDS011;45961;53.574;55.878;2023-02-15T04:38:03;6.88;;;4.35;;
60088;SDS011;45961;53.574;55.878;2023-02-15T04:39:04;10.40;;;4.95;;
60088;SDS011;45961;53.574;55.878;2023-02-15T04:40:06;11.27;;;4.32;;
60088;SDS011;45961;53.574;55.878;2023-02-15T04:41:09;8.20;;;4.47;;
60088;SDS011;45961;53.574;55.878;2023-02-15T04:42:12;8.57;;;3.88;;
60088;SDS011;45961;53.574;55.878;2023-02-15T04:43:13;8.32;;;4.43;;
60088;SDS011;45961;53.574;55.878;2023-02-15T04:44:14;9.77;;;4.18;;
60088;SDS011;45961;53.574;55.878;2023-02-15T04:45:16;8.25;;;4.57;;
60088;SDS011;45961;53.574;55.878;2023-02-15T04:46:17;7.47;;;4.50;;
60088;SDS011;45961;53.574;55.878;2023-02-15T04:47:18;8.60;;;4.75;;
60088;SDS011;45961;53.574;55.878;2023-02-15T04:49:20;8.93;;;4.47;;
60088;SDS011;45961;53.574;55.878;2023-02-15T04:50:21;8.32;;;4.15;;
60088;SDS011;45961;53.574;55.878;2023-02-15T04:51:22;10.02;;;4.90;;
60088;SDS011;45961;53.574;55.878;2023-02-15T04:52:24;9.80;;;4.97;;
60088;SDS011;45961;53.574;55.878;2023-02-15T04:53:25;10.48;;;5.30;;
60088;SDS011;45961;53.574;55.878;2023-02-15T04:54:26;10.95;;;5.55;;
60088;SDS011;45961;53.574;55.878;2023-02-15T04:55:27;8.30;;;5.15;;
60088;SDS011;45961;53.574;55.878;2023-02-15T04:56:27;8.10;;;4.53;;
60088;SDS011;45961;53.574;55.878;2023-02-15T04:57:30;11.00;;;5.30;;
60088;SDS011;45961;53.574;55.878;2023-02-15T04:58:31;12.13;;;5.10;;
60088;SDS011;45961;53.574;55.878;2023-02-15T04:59:32;11.95;;;5.88;;
60088;SDS011;45961;53.574;55.878;2023-02-15T05:00:33;11.35;;;6.65;;
60088;SDS011;45961;53.574;55.878;2023-02-15T05:01:34;10.45;;;5.50;;
60088;SDS011;45961;53.574;55.878;2023-02-15T05:02:35;10.63;;;5.80;;
60088;SDS011;45961;53.574;55.878;2023-02-15T05:03:36;12.05;;;5.63;;
60088;SDS011;45961;53.574;55.878;2023-02-15T05:05:38;10.17;;;5.30;;
60088;SDS011;45961;53.574;55.878;2023-02-15T05:06:39;10.02;;;4.82;;
60088;SDS011;45961;53.574;55.878;2023-02-15T05:07:42;9.32;;;5.25;;
60088;SDS011;45961;53.574;55.878;2023-02-15T05:08:43;11.30;;;6.25;;
60088;SDS011;45961;53.574;55.878;2023-02-15T05:09:44;8.50;;;4.63;;
60088;SDS011;45961;53.574;55.878;2023-02-15T05:10:47;10.00;;;4.57;;
60088;SDS011;45961;53.574;55.878;2023-02-15T05:11:49;7.63;;;4.20;;
60088;SDS011;45961;53.574;55.878;2023-02-15T05:12:49;7.90;;;4.07;;
60088;SDS011;45961;53.574;55.878;2023-02-15T05:13:50;6.70;;;4.43;;
60088;SDS011;45961;53.574;55.878;2023-02-15T05:14:51;7.03;;;3.78;;
60088;SDS011;45961;53.574;55.878;2023-02-15T05:15:52;7.47;;;5.15;;
60088;SDS011;45961;53.574;55.878;2023-02-15T05:17:54;7.80;;;4.30;;
60088;SDS011;45961;53.574;55.878;2023-02-15T05:18:55;8.52;;;4.30;;
60088;SDS011;45961;53.574;55.878;2023-02-15T05:19:56;7.88;;;4.18;;
60088;SDS011;45961;53.574;55.878;2023-02-15T05:20:57;6.63;;;4.13;;
60088;SDS011;45961;53.574;55.878;2023-02-15T05:21:58;9.23;;;4.47;;
60088;SDS011;45961;53.574;55.878;2023-02-15T05:22:59;8.85;;;4.50;;
60088;SDS011;45961;53.574;55.878;2023-02-15T05:24:00;7.75;;;4.30;;
60088;SDS011;45961;53.574;55.878;2023-02-15T05:25:21;7.60;;;4.03;;
60088;SDS011;45961;53.574;55.878;2023-02-15T05:26:41;9.38;;;4.70;;
60088;SDS011;45961;53.574;55.878;2023-02-15T05:28:00;10.13;;;4.22;;
60088;SDS011;45961;53.574;55.878;2023-02-15T05:29:19;6.82;;;3.97;;
60088;SDS011;45961;53.574;55.878;2023-02-15T05:30:20;8.85;;;4.57;;
60088;SDS011;45961;53.574;55.878;2023-02-15T05:31:21;10.70;;;5.30;;
60088;SDS011;45961;53.574;55.878;2023-02-15T05:32:22;11.32;;;5.13;;
60088;SDS011;45961;53.574;55.878;2023-02-15T05:33:23;9.05;;;4.28;;
60088;SDS011;45961;53.574;55.878;2023-02-15T05:34:24;10.18;;;4.93;;
60088;SDS011;45961;53.574;55.878;2023-02-15T05:35:25;7.88;;;4.60;;
60088;SDS011;45961;53.574;55.878;2023-02-15T05:36:26;8.50;;;4.35;;
60088;SDS011;45961;53.574;55.878;2023-02-15T05:37:27;10.70;;;4.53;;
60088;SDS011;45961;53.574;55.878;2023-02-15T05:38:29;7.57;;;4.28;;
60088;SDS011;45961;53.574;55.878;2023-02-15T05:40:32;9.68;;;4.20;;
60088;SDS011;45961;53.574;55.878;2023-02-15T05:41:33;8.35;;;4.68;;
60088;SDS011;45961;53.574;55.878;2023-02-15T05:42:34;9.77;;;4.50;;
60088;SDS011;45961;53.574;55.878;2023-02-15T05:43:35;10.20;;;4.45;;
60088;SDS011;45961;53.574;55.878;2023-02-15T05:44:37;8.35;;;4.47;;
60088;SDS011;45961;53.574;55.878;2023-02-15T05:45:38;10.68;;;4.70;;
60088;SDS011;45961;53.574;55.878;2023-02-15T05:46:39;8.55;;;4.63;;
60088;SDS011;45961;53.574;55.878;2023-02-15T05:47:39;10.35;;;4.65;;
60088;SDS011;45961;53.574;55.878;2023-02-15T05:48:40;8.07;;;4.53;;
60088;SDS011;45961;53.574;55.878;2023-02-15T05:49:41;11.43;;;4.95;;
60088;SDS011;45961;53.574;55.878;2023-02-15T05:50:42;10.18;;;5.35;;
60088;SDS011;45961;53.574;55.878;2023-02-15T05:51:43;7.80;;;4.88;;
60088;SDS011;45961;53.574;55.878;2023-02-15T05:52:44;10.73;;;5.00;;
60088;SDS011;45961;53.574;55.878;2023-02-15T05:53:45;12.13;;;5.43;;
60088;SDS011;45961;53.574;55.878;2023-02-15T05:54:49;10.55;;;5.38;;
60088;SDS011;45961;53.574;55.878;2023-02-15T05:55:50;10.88;;;4.95;;
60088;SDS011;45961;53.574;55.878;2023-02-15T05:56:51;9.73;;;4.75;;
60088;SDS011;45961;53.574;55.878;2023-02-15T05:57:52;12.95;;;6.25;;
60088;SDS011;45961;53.574;55.878;2023-02-15T05:58:53;7.07;;;4.22;;
60088;SDS011;45961;53.574;55.878;2023-02-15T05:59:55;10.35;;;5.32;;
60088;SDS011;45961;53.574;55.878;2023-02-15T06:00:56;7.93;;;4.32;;
60088;SDS011;45961;53.574;55.878;2023-02-15T06:01:57;11.02;;;4.35;;
60088;SDS011;45961;53.574;55.878;2023-02-15T06:02:58;8.98;;;5.47;;
60088;SDS011;45961;53.574;55.878;2023-02-15T06:03:59;10.00;;;5.30;;
60088;SDS011;45961;53.574;55.878;2023-02-15T06:05:00;11.82;;;5.78;;
60088;SDS011;45961;53.574;55.878;2023-02-15T06:06:01;11.63;;;5.05;;
60088;SDS011;45961;53.574;55.878;2023-02-15T06:07:03;10.68;;;5.40;;
60088;SDS011;45961;53.574;55.878;2023-02-15T06:08:04;8.95;;;4.93;;
60088;SDS011;45961;53.574;55.878;2023-02-15T06:09:05;14.18;;;5.88;;
60088;SDS011;45961;53.574;55.878;2023-02-15T06:10:06;8.25;;;5.13;;
60088;SDS011;45961;53.574;55.878;2023-02-15T06:11:08;10.05;;;5.55;;
60088;SDS011;45961;53.574;55.878;2023-02-15T06:12:08;8.70;;;5.18;;
60088;SDS011;45961;53.574;55.878;2023-02-15T06:13:09;12.05;;;4.93;;
60088;SDS011;45961;53.574;55.878;2023-02-15T06:14:10;8.77;;;4.60;;
60088;SDS011;45961;53.574;55.878;2023-02-15T06:15:11;9.15;;;5.20;;
60088;SDS011;45961;53.574;55.878;2023-02-15T06:16:14;10.23;;;5.60;;
60088;SDS011;45961;53.574;55.878;2023-02-15T06:17:16;10.52;;;5.82;;
60088;SDS011;45961;53.574;55.878;2023-02-15T06:19:18;9.88;;;4.90;;
60088;SDS011;45961;53.574;55.878;2023-02-15T06:21:20;8.17;;;5.20;;
60088;SDS011;45961;53.574;55.878;2023-02-15T06:23:22;9.85;;;4.88;;
60088;SDS011;45961;53.574;55.878;2023-02-15T06:24:23;10.00;;;5.15;;
60088;SDS011;45961;53.574;55.878;2023-02-15T06:25:24;8.32;;;4.65;;
60088;SDS011;45961;53.574;55.878;2023-02-15T06:26:25;12.20;;;5.53;;
60088;SDS011;45961;53.574;55.878;2023-02-15T06:27:26;8.73;;;5.20;;
60088;SDS011;45961;53.574;55.878;2023-02-15T06:28:27;11.57;;;5.15;;
60088;SDS011;45961;53.574;55.878;2023-02-15T06:29:28;10.50;;;5.60;;
60088;SDS011;45961;53.574;55.878;2023-02-15T06:30:29;8.73;;;4.57;;
60088;SDS011;45961;53.574;55.878;2023-02-15T06:31:30;12.73;;;5.40;;
60088;SDS011;45961;53.574;55.878;2023-02-15T06:33:32;10.43;;;4.82;;
60088;SDS011;45961;53.574;55.878;2023-02-15T06:34:36;8.93;;;4.90;;
60088;SDS011;45961;53.574;55.878;2023-02-15T06:35:37;9.35;;;4.65;;
60088;SDS011;45961;53.574;55.878;2023-02-15T06:36:38;9.52;;;4.50;;
60088;SDS011;45961;53.574;55.878;2023-02-15T06:37:39;7.20;;;4.20;;
60088;SDS011;45961;53.574;55.878;2023-02-15T06:38:40;9.00;;;5.05;;
60088;SDS011;45961;53.574;55.878;2023-02-15T06:39:41;10.23;;;4.95;;
60088;SDS011;45961;53.574;55.878;2023-02-15T06:40:43;8.73;;;5.50;;
60088;SDS011;45961;53.574;55.878;2023-02-15T06:41:44;8.82;;;4.90;;
60088;SDS011;45961;53.574;55.878;2023-02-15T06:42:45;9.82;;;5.10;;
60088;SDS011;45961;53.574;55.878;2023-02-15T06:43:46;10.52;;;5.07;;
60088;SDS011;45961;53.574;55.878;2023-02-15T06:44:47;9.10;;;4.53;;
60088;SDS011;45961;53.574;55.878;2023-02-15T06:45:48;7.95;;;4.82;;
60088;SDS011;45961;53.574;55.878;2023-02-15T06:46:49;9.25;;;4.72;;
60088;SDS011;45961;53.574;55.878;2023-02-15T06:47:50;10.35;;;4.97;;
60088;SDS011;45961;53.574;55.878;2023-02-15T06:48:51;7.15;;;4.47;;
60088;SDS011;45961;53.574;55.878;2023-02-15T06:49:53;8.88;;;4.03;;
60088;SDS011;45961;53.574;55.878;2023-02-15T06:50:54;10.13;;;4.85;;
60088;SDS011;45961;53.574;55.878;2023-02-15T06:52:57;7.85;;;4.88;;
60088;SDS011;45961;53.574;55.878;2023-02-15T06:53:58;7.72;;;4.60;;
60088;SDS011;45961;53.574;55.878;2023-02-15T06:54:59;6.38;;;3.75;;
60088;SDS011;45961;53.574;55.878;2023-02-15T06:56:01;8.00;;;4.68;;
60088;SDS011;45961;53.574;55.878;2023-02-15T06:57:07;7.18;;;4.15;;
60088;SDS011;45961;53.574;55.878;2023-02-15T06:58:09;7.78;;;4.65;;
60088;SDS011;45961;53.574;55.878;2023-02-15T06:59:10;6.50;;;3.97;;
60088;SDS011;45961;53.574;55.878;2023-02-15T07:00:11;8.50;;;4.43;;
60088;SDS011;45961;53.574;55.878;2023-02-15T07:01:13;12.18;;;4.95;;
60088;SDS011;45961;53.574;55.878;2023-02-15T07:02:14;7.25;;;4.20;;